Time;durP1;ratioP1;P1;durP2;ratioP2;P2;SDS_P1;SDS_P2;PMS_P1;PMS_P2;Temp;Humidity;BMP_temperature;BMP_pressure;BME280_temperature;BME280_humidity;BME280_pressure;Samples;Min_cycle;Max_cycle;Signal;HPM_P1;HPM_P2
2021/06/14 00:00:56;;;;;;;3.47;0.93;;;15.40;99.90;;;;;;5017157;28;20030;-77
2021/06/14 00:03:21;;;;;;;6.43;0.47;;;15.40;99.90;;;;;;5016522;28;20113;-77
2021/06/14 00:05:47;;;;;;;2.00;0.30;;;15.40;99.90;;;;;;5016511;28;20022;-76
2021/06/14 00:08:19;;;;;;;2.58;0.47;;;15.30;99.90;;;;;;5016948;28;20025;-77
2021/06/14 00:10:47;;;;;;;2.35;0.30;;;15.30;99.90;;;;;;5016728;28;20022;-77
2021/06/14 00:13:13;;;;;;;3.03;1.10;;;15.30;99.90;;;;;;5016335;28;20483;-77
2021/06/14 00:15:41;;;;;;;5.63;0.35;;;15.30;99.90;;;;;;5015232;28;20113;-77
2021/06/14 00:18:08;;;;;;;5.43;1.47;;;15.30;99.90;;;;;;5017269;28;20526;-78
2021/06/14 00:20:34;;;;;;;7.00;0.50;;;15.30;99.90;;;;;;5018141;28;20026;-78
2021/06/14 00:23:00;;;;;;;3.30;0.30;;;15.30;99.90;;;;;;5017522;28;20033;-78
2021/06/14 00:25:27;;;;;;;2.95;0.40;;;15.30;99.90;;;;;;5016963;28;20030;-77
2021/06/14 00:27:54;;;;;;;2.65;0.30;;;15.30;99.90;;;;;;5016295;28;20447;-77
2021/06/14 00:30:34;;;;;;;3.70;0.45;;;15.30;99.90;;;;;;5015159;28;20020;-77
2021/06/14 00:32:59;;;;;;;6.40;0.57;;;15.30;99.90;;;;;;5017431;28;20022;-77
2021/06/14 00:35:25;;;;;;;4.95;0.60;;;15.30;99.90;;;;;;5066816;22;20041;-76
2021/06/14 00:37:52;;;;;;;2.40;0.50;;;15.30;99.90;;;;;;5035474;28;20470;-76
2021/06/14 00:40:18;;;;;;;3.00;0.60;;;15.20;99.90;;;;;;5035661;28;20061;-76
2021/06/14 00:42:44;;;;;;;0.82;0.30;;;15.20;99.90;;;;;;5035502;28;20509;-76
2021/06/14 00:45:15;;;;;;;1.77;0.30;;;15.20;99.90;;;;;;5035609;28;20029;-76
2021/06/14 00:47:42;;;;;;;1.95;0.43;;;15.20;99.90;;;;;;5035532;28;20359;-76
2021/06/14 00:50:08;;;;;;;3.20;0.85;;;15.10;99.90;;;;;;5035544;28;20021;-75
2021/06/14 00:52:34;;;;;;;1.98;0.55;;;15.10;99.90;;;;;;5035147;28;20021;-75
2021/06/14 00:55:00;;;;;;;2.63;0.45;;;15.10;99.90;;;;;;5035213;28;20040;-76
2021/06/14 00:57:25;;;;;;;1.88;0.32;;;15.00;99.90;;;;;;5017273;28;20467;-76
2021/06/14 00:59:52;;;;;;;3.50;0.75;;;14.90;99.90;;;;;;5034901;28;20061;-76
2021/06/14 01:02:17;;;;;;;4.40;0.68;;;14.90;99.90;;;;;;5035605;28;20033;-76
2021/06/14 01:04:43;;;;;;;1.85;0.70;;;14.90;99.90;;;;;;5017168;28;20437;-76
2021/06/14 01:07:09;;;;;;;2.15;0.60;;;14.80;99.90;;;;;;5035195;28;20378;-76
2021/06/14 01:09:35;;;;;;;3.08;0.30;;;14.80;99.90;;;;;;5035461;28;20025;-76
2021/06/14 01:12:09;;;;;;;3.08;0.75;;;14.70;99.90;;;;;;5034809;28;20360;-76
2021/06/14 01:15:05;;;;;;;7.22;0.50;;;14.70;99.90;;;;;;5034735;28;20062;-76
2021/06/14 01:17:40;;;;;;;1.90;0.50;;;14.60;99.90;;;;;;5034550;28;20065;-76
2021/06/14 01:20:14;;;;;;;1.77;0.57;;;14.60;99.90;;;;;;5034820;28;20378;-76
2021/06/14 01:22:53;;;;;;;2.97;0.68;;;14.60;99.90;;;;;;5034685;28;20040;-76
2021/06/14 01:25:33;;;;;;;2.25;0.73;;;14.60;99.90;;;;;;5034541;28;20079;-76
2021/06/14 01:28:01;;;;;;;1.83;0.52;;;14.60;99.90;;;;;;5016770;28;20080;-75
2021/06/14 01:30:36;;;;;;;4.00;0.50;;;14.60;99.90;;;;;;5034552;28;20024;-76
2021/06/14 01:33:05;;;;;;;1.83;0.65;;;14.60;99.90;;;;;;5016754;28;20072;-76
2021/06/14 01:35:31;;;;;;;;;;;14.60;99.90;;;;;;5034707;28;20055;-75
2021/06/14 01:38:00;;;;;;;4.30;0.50;;;14.60;99.90;;;;;;5016662;28;20337;-76
2021/06/14 01:40:27;;;;;;;3.00;0.95;;;14.60;99.90;;;;;;5034659;28;20471;-76
2021/06/14 01:42:56;;;;;;;3.85;0.77;;;14.60;99.90;;;;;;5016603;28;20045;-75
2021/06/14 01:45:25;;;;;;;5.32;0.93;;;14.60;99.90;;;;;;5034225;28;20108;-76
2021/06/14 01:47:52;;;;;;;3.00;0.75;;;14.60;99.90;;;;;;5033631;28;20108;-76
2021/06/14 01:50:19;;;;;;;2.75;0.30;;;14.60;99.90;;;;;;5012908;28;20022;-76
2021/06/14 01:52:45;;;;;;;3.30;0.80;;;14.50;99.90;;;;;;5011955;28;20068;-77
2021/06/14 01:55:14;;;;;;;3.75;0.73;;;14.50;99.90;;;;;;5031901;28;20061;-75
2021/06/14 01:57:41;;;;;;;2.58;0.70;;;14.40;99.90;;;;;;5029738;28;20037;-75
2021/06/14 02:00:08;;;;;;;2.65;0.32;;;14.40;99.90;;;;;;5021978;28;20026;-75
2021/06/14 02:02:34;;;;;;;3.67;0.98;;;14.40;99.90;;;;;;5029633;28;20625;-76
2021/06/14 02:05:01;;;;;;;2.42;0.80;;;14.30;99.90;;;;;;5032136;28;20116;-76
2021/06/14 02:07:27;;;;;;;3.08;0.60;;;14.30;99.90;;;;;;5033241;28;20479;-75
2021/06/14 02:09:54;;;;;;;3.85;0.88;;;14.30;99.90;;;;;;5033621;28;20072;-76
2021/06/14 02:12:20;;;;;;;3.72;0.68;;;14.20;99.90;;;;;;5033234;28;20029;-76
2021/06/14 02:14:46;;;;;;;2.33;0.63;;;14.10;99.90;;;;;;5033216;28;20033;-76
2021/06/14 02:17:20;;;;;;;4.65;0.70;;;14.10;99.90;;;;;;5032936;28;20033;-75
2021/06/14 02:19:48;;;;;;;3.80;0.68;;;14.00;99.90;;;;;;5002211;28;20041;-75
2021/06/14 02:22:15;;;;;;;3.17;0.70;;;14.00;99.90;;;;;;5033549;28;20038;-74
2021/06/14 02:24:42;;;;;;;3.80;0.73;;;14.00;99.90;;;;;;5033724;28;20029;-75
2021/06/14 02:27:10;;;;;;;2.72;0.20;;;14.00;99.90;;;;;;5032911;28;20021;-75
2021/06/14 02:29:36;;;;;;;;;;;13.90;99.90;;;;;;5033754;28;20036;-75
2021/06/14 02:32:02;;;;;;;2.90;0.55;;;13.90;99.90;;;;;;5033557;28;20417;-76
2021/06/14 02:34:28;;;;;;;4.45;0.68;;;13.90;99.90;;;;;;5033037;28;20033;-75
2021/06/14 02:36:55;;;;;;;3.58;0.65;;;13.90;99.90;;;;;;5032247;28;20079;-76
2021/06/14 02:39:29;;;;;;;4.95;0.82;;;13.90;99.90;;;;;;5011849;28;20056;-76
2021/06/14 02:41:56;;;;;;;4.30;0.80;;;13.80;99.90;;;;;;5029608;28;20116;-75
2021/06/14 02:44:23;;;;;;;2.03;0.88;;;13.80;99.90;;;;;;5011825;28;20565;-75
2021/06/14 02:46:49;;;;;;;1.30;0.60;;;13.80;99.90;;;;;;5012852;28;20032;-75
2021/06/14 02:49:19;;;;;;;3.60;0.57;;;13.80;99.90;;;;;;5030687;28;20026;-75
2021/06/14 02:51:46;;;;;;;5.45;1.13;;;13.70;99.90;;;;;;5033034;28;20037;-75
2021/06/14 02:54:22;;;;;;;2.70;1.05;;;13.70;99.90;;;;;;5015484;28;20482;-75
2021/06/14 02:56:49;;;;;;;2.08;0.90;;;13.70;99.90;;;;;;5002763;28;20036;-75
2021/06/14 02:59:18;;;;;;;2.78;1.10;;;13.70;99.90;;;;;;5015451;28;20025;-75
2021/06/14 03:01:47;;;;;;;2.92;0.90;;;13.70;99.90;;;;;;5032818;28;20072;-76
2021/06/14 03:04:15;;;;;;;4.68;1.20;;;13.60;99.90;;;;;;5014508;28;20514;-76
2021/06/14 03:06:43;;;;;;;2.33;0.77;;;13.60;99.90;;;;;;5031832;28;20037;-75
2021/06/14 03:09:09;;;;;;;5.25;0.70;;;13.60;99.90;;;;;;5015055;28;20275;-75
2021/06/14 03:11:37;;;;;;;3.95;0.82;;;13.50;99.90;;;;;;5032744;28;20026;-75
2021/06/14 03:14:04;;;;;;;1.88;0.73;;;13.50;99.90;;;;;;5032758;28;20505;-75
2021/06/14 03:16:31;;;;;;;4.65;1.10;;;13.50;99.90;;;;;;5032389;28;20104;-75
2021/06/14 03:18:57;;;;;;;2.83;0.90;;;13.40;99.90;;;;;;5014945;28;20120;-75
2021/06/14 03:21:27;;;;;;;2.58;0.68;;;13.40;99.90;;;;;;5014694;28;20524;-75
2021/06/14 03:23:53;;;;;;;3.95;1.13;;;13.80;99.90;;;;;;5035806;28;20036;-75
2021/06/14 03:26:21;;;;;;;3.38;0.75;;;13.40;99.90;;;;;;5018816;28;20125;-76
2021/06/14 03:28:48;;;;;;;3.22;1.08;;;13.40;99.90;;;;;;5036866;28;20075;-75
2021/06/14 03:31:15;;;;;;;2.75;0.70;;;13.40;99.90;;;;;;5037109;28;20022;-75
2021/06/14 03:33:49;;;;;;;3.08;0.90;;;13.40;99.90;;;;;;5036025;28;20052;-75
2021/06/14 03:36:18;;;;;;;3.28;0.93;;;13.40;99.90;;;;;;5030581;28;20479;-76
2021/06/14 03:38:48;;;;;;;1.80;0.88;;;13.30;99.90;;;;;;5018750;28;20025;-75
2021/06/14 03:41:17;;;;;;;2.60;0.75;;;13.40;99.90;;;;;;5036079;28;20032;-74
2021/06/14 03:43:42;;;;;;;2.10;0.80;;;13.30;99.90;;;;;;5035990;28;20121;-75
2021/06/14 03:46:08;;;;;;;3.70;0.77;;;13.40;99.90;;;;;;5034330;28;20704;-75
2021/06/14 03:48:34;;;;;;;4.68;1.63;;;13.40;99.90;;;;;;5015640;28;20380;-75
2021/06/14 03:50:59;;;;;;;3.25;1.02;;;13.40;99.90;;;;;;5014486;28;20471;-76
2021/06/14 03:53:31;;;;;;;3.95;0.80;;;13.40;99.90;;;;;;5032468;28;20057;-76
2021/06/14 03:56:06;;;;;;;3.67;0.98;;;13.40;99.90;;;;;;5033044;28;20445;-76
2021/06/14 03:58:32;;;;;;;8.07;0.68;;;13.40;99.90;;;;;;5031481;28;20149;-76
2021/06/14 04:00:59;;;;;;;3.20;1.23;;;13.50;99.90;;;;;;5014458;28;20397;-76
2021/06/14 04:03:27;;;;;;;5.55;0.90;;;13.50;99.90;;;;;;5034311;28;20360;-76
2021/06/14 04:05:57;;;;;;;3.20;1.00;;;13.60;99.90;;;;;;5035939;28;20572;-76
2021/06/14 04:08:23;;;;;;;3.25;1.50;;;13.60;99.90;;;;;;5035543;28;20057;-76
2021/06/14 04:10:49;;;;;;;6.07;1.65;;;13.70;99.90;;;;;;5017659;28;20068;-76
2021/06/14 04:13:14;;;;;;;5.30;2.05;;;13.80;99.90;;;;;;5036012;28;20045;-75
2021/06/14 04:15:40;;;;;;;7.75;2.05;;;13.90;99.90;;;;;;5035533;28;20029;-76
2021/06/14 04:18:06;;;;;;;8.88;2.15;;;14.00;99.90;;;;;;5035578;28;20475;-75
2021/06/14 04:20:32;;;;;;;6.57;2.25;;;14.00;99.90;;;;;;5035666;28;20076;-75
2021/06/14 04:22:58;;;;;;;11.82;3.00;;;14.20;99.90;;;;;;5035528;28;20402;-75
2021/06/14 04:25:24;;;;;;;9.13;2.83;;;14.20;99.90;;;;;;5035542;28;20501;-76
2021/06/14 04:27:50;;;;;;;8.38;2.33;;;14.30;99.90;;;;;;5035616;28;20352;-75
2021/06/14 04:30:17;;;;;;;8.07;3.20;;;14.40;99.90;;;;;;5017998;28;20033;-75
2021/06/14 04:32:44;;;;;;;8.30;3.35;;;14.50;99.90;;;;;;5017627;28;20079;-75
2021/06/14 04:35:11;;;;;;;11.20;2.70;;;14.50;99.90;;;;;;5016800;28;20030;-75
2021/06/14 04:37:37;;;;;;;9.13;2.63;;;14.60;99.90;;;;;;5017679;28;20116;-75
2021/06/14 04:40:05;;;;;;;10.05;3.17;;;14.80;99.90;;;;;;5035195;28;20021;-75
2021/06/14 04:42:31;;;;;;;12.13;3.97;;;14.90;99.90;;;;;;5035591;28;20029;-75
2021/06/14 04:44:57;;;;;;;9.77;3.20;;;15.10;99.90;;;;;;5017195;28;20041;-76
2021/06/14 04:47:23;;;;;;;9.23;3.53;;;15.20;99.90;;;;;;5035047;28;20017;-75
2021/06/14 04:49:49;;;;;;;8.40;3.38;;;15.30;99.90;;;;;;5035549;28;20021;-75
2021/06/14 04:52:14;;;;;;;10.32;3.55;;;15.40;99.90;;;;;;5035039;28;20100;-75
2021/06/14 04:54:41;;;;;;;8.90;3.22;;;15.60;99.90;;;;;;5016701;28;20040;-76
2021/06/14 04:57:07;;;;;;;9.55;3.65;;;15.70;99.90;;;;;;5035079;28;20029;-76
2021/06/14 04:59:33;;;;;;;13.95;3.38;;;15.90;99.90;;;;;;5035196;28;20060;-77
2021/06/14 05:01:58;;;;;;;9.15;3.55;;;16.00;99.90;;;;;;5035151;28;20061;-76
2021/06/14 05:04:24;;;;;;;8.25;3.00;;;16.10;99.90;;;;;;5017210;28;20021;-76
2021/06/14 05:06:49;;;;;;;12.57;3.30;;;16.20;99.90;;;;;;5017205;28;20040;-76
2021/06/14 05:09:15;;;;;;;9.32;4.43;;;16.30;99.90;;;;;;5034795;28;20028;-77
2021/06/14 05:11:40;;;;;;;10.95;4.60;;;16.60;99.90;;;;;;5035748;28;20025;-76
2021/06/14 05:14:06;;;;;;;10.57;3.60;;;16.60;99.90;;;;;;5035603;28;20499;-76
2021/06/14 05:16:32;;;;;;;9.48;3.63;;;16.80;99.90;;;;;;5034916;28;20034;-76
2021/06/14 05:18:58;;;;;;;10.20;3.90;;;17.00;99.90;;;;;;5016746;28;20025;-76
2021/06/14 05:21:24;;;;;;;5.82;2.42;;;17.10;99.90;;;;;;5034828;28;20013;-76
2021/06/14 05:23:51;;;;;;;13.65;4.30;;;17.20;99.90;;;;;;5034140;28;20041;-76
2021/06/14 05:26:16;;;;;;;8.40;3.15;;;17.30;99.90;;;;;;5034037;28;20017;-77
2021/06/14 05:28:42;;;;;;;7.32;3.20;;;17.40;99.90;;;;;;5034437;28;20032;-76
2021/06/14 05:31:07;;;;;;;7.75;3.03;;;17.50;99.90;;;;;;5016774;28;20364;-76
2021/06/14 05:33:33;;;;;;;8.63;3.08;;;17.70;99.90;;;;;;5034373;28;20173;-75
2021/06/14 05:35:59;;;;;;;12.65;3.80;;;17.80;99.90;;;;;;5035021;28;20029;-76
2021/06/14 05:38:24;;;;;;;6.75;2.92;;;17.90;99.90;;;;;;5034874;28;20059;-77
2021/06/14 05:40:50;;;;;;;9.52;3.45;;;18.00;99.90;;;;;;5035311;28;20057;-78
2021/06/14 05:43:15;;;;;;;8.57;3.30;;;18.10;99.90;;;;;;5017012;28;20029;-77
2021/06/14 05:45:41;;;;;;;12.10;3.90;;;18.20;99.90;;;;;;5034469;28;20451;-76
2021/06/14 05:48:07;;;;;;;8.00;3.78;;;18.40;99.90;;;;;;5033938;28;20036;-77
2021/06/14 05:50:33;;;;;;;11.20;3.80;;;18.40;99.90;;;;;;5016478;28;20067;-76
2021/06/14 05:52:58;;;;;;;7.65;3.55;;;18.60;99.90;;;;;;5034445;28;20026;-78
2021/06/14 05:55:24;;;;;;;6.35;3.30;;;18.70;99.90;;;;;;5034242;28;20083;-77
2021/06/14 05:57:49;;;;;;;10.73;4.18;;;18.80;99.90;;;;;;5016163;28;20037;-76
2021/06/14 06:00:16;;;;;;;11.43;4.03;;;19.00;99.90;;;;;;5034077;28;20383;-76
2021/06/14 06:02:41;;;;;;;8.82;3.53;;;18.90;99.90;;;;;;5016054;28;20025;-76
2021/06/14 06:05:07;;;;;;;10.63;4.15;;;19.00;99.90;;;;;;5015981;28;20038;-75
2021/06/14 06:07:37;;;;;;;11.32;4.15;;;19.00;99.90;;;;;;5016019;28;20022;-78
2021/06/14 06:10:05;;;;;;;9.50;3.50;;;19.00;99.90;;;;;;5034348;28;20028;-76
2021/06/14 06:12:31;;;;;;;16.57;4.53;;;19.20;99.90;;;;;;5033810;28;20029;-76
2021/06/14 06:14:57;;;;;;;8.23;3.28;;;19.20;99.90;;;;;;5034616;28;20637;-78
2021/06/14 06:17:22;;;;;;;7.28;3.50;;;19.30;99.20;;;;;;5035804;28;20029;-77
2021/06/14 06:19:48;;;;;;;9.52;4.07;;;19.50;98.90;;;;;;5017986;28;20483;-77
2021/06/14 06:22:14;;;;;;;10.07;3.70;;;19.60;98.20;;;;;;5016312;28;20077;-77
2021/06/14 06:24:40;;;;;;;7.18;3.70;;;19.70;97.20;;;;;;5033809;28;20018;-77
2021/06/14 06:27:05;;;;;;;10.63;3.78;;;19.80;95.80;;;;;;5034103;28;20021;-77
2021/06/14 06:29:31;;;;;;;10.77;3.72;;;19.80;95.70;;;;;;5034080;28;20021;-77
2021/06/14 06:31:57;;;;;;;8.70;3.47;;;19.80;95.30;;;;;;5033911;28;20041;-76
2021/06/14 06:34:23;;;;;;;11.02;3.60;;;19.90;95.30;;;;;;5033538;28;20470;-76
2021/06/14 06:36:49;;;;;;;7.57;2.95;;;20.00;95.10;;;;;;5015965;28;20029;-77
2021/06/14 06:39:14;;;;;;;6.03;3.35;;;20.10;94.10;;;;;;5033234;28;20105;-76
2021/06/14 06:41:40;;;;;;;10.32;4.53;;;20.10;92.90;;;;;;5033432;28;20486;-77
2021/06/14 06:44:07;;;;;;;10.20;3.60;;;20.20;93.10;;;;;;5032959;28;20040;-77
2021/06/14 06:46:32;;;;;;;10.38;3.53;;;20.40;93.80;;;;;;5015292;28;20053;-76
2021/06/14 06:48:58;;;;;;;13.02;3.50;;;20.40;92.80;;;;;;5033362;28;20443;-77
2021/06/14 06:51:23;;;;;;;8.00;3.15;;;20.50;91.80;;;;;;5033553;28;20056;-77
2021/06/14 06:53:49;;;;;;;11.88;3.47;;;20.60;91.30;;;;;;5015583;28;20049;-77
2021/06/14 06:56:14;;;;;;;6.25;2.97;;;20.80;90.60;;;;;;5015579;28;20047;-76
2021/06/14 06:58:43;;;;;;;8.30;3.28;;;20.90;90.60;;;;;;5033057;28;20029;-76
2021/06/14 07:01:08;;;;;;;6.57;3.70;;;21.00;90.60;;;;;;5015462;28;20029;-76
2021/06/14 07:03:34;;;;;;;6.22;2.95;;;21.10;89.60;;;;;;5033019;28;20379;-76
2021/06/14 07:06:00;;;;;;;10.20;3.47;;;21.20;89.80;;;;;;5015274;28;20021;-76
2021/06/14 07:08:25;;;;;;;10.60;4.45;;;21.40;90.70;;;;;;5033082;28;20093;-76
2021/06/14 07:10:51;;;;;;;9.23;3.88;;;21.50;90.10;;;;;;5033337;28;20597;-76
2021/06/14 07:13:16;;;;;;;11.88;3.20;;;21.60;88.00;;;;;;5033052;28;20463;-76
2021/06/14 07:15:43;;;;;;;9.35;4.38;;;21.80;88.80;;;;;;5015379;28;20048;-76
2021/06/14 07:18:09;;;;;;;11.25;4.22;;;21.90;84.70;;;;;;5032952;28;20013;-76
2021/06/14 07:20:35;;;;;;;9.48;4.18;;;22.00;82.80;;;;;;5033311;28;20030;-76
2021/06/14 07:23:00;;;;;;;9.82;3.78;;;22.10;80.70;;;;;;5033301;28;20374;-76
2021/06/14 07:25:26;;;;;;;11.40;3.20;;;22.10;80.70;;;;;;5032899;28;20162;-75
2021/06/14 07:27:52;;;;;;;8.60;3.85;;;22.10;80.50;;;;;;5032844;28;20022;-76
2021/06/14 07:30:18;;;;;;;8.60;3.00;;;22.20;78.80;;;;;;5015247;28;20024;-76
2021/06/14 07:32:44;;;;;;;8.68;2.30;;;22.30;77.40;;;;;;5033202;28;20053;-76
2021/06/14 07:35:11;;;;;;;9.43;3.00;;;22.50;76.00;;;;;;5032800;28;20025;-76
2021/06/14 07:37:37;;;;;;;7.05;3.60;;;22.60;73.60;;;;;;5015164;28;20494;-76
2021/06/14 07:40:07;;;;;;;8.77;3.90;;;22.60;72.80;;;;;;5033124;28;20024;-76
2021/06/14 07:42:33;;;;;;;10.32;4.07;;;22.80;72.70;;;;;;5032751;28;20030;-76
2021/06/14 07:44:58;;;;;;;10.63;3.58;;;22.90;73.20;;;;;;5014941;28;20036;-76
2021/06/14 07:47:24;;;;;;;8.18;2.53;;;23.00;70.20;;;;;;5032991;28;20084;-76
2021/06/14 07:49:49;;;;;;;6.57;2.70;;;22.90;69.50;;;;;;5032839;28;20022;-76
2021/06/14 07:52:15;;;;;;;13.32;3.10;;;23.30;68.90;;;;;;5032971;28;20474;-76
2021/06/14 07:54:41;;;;;;;6.65;2.50;;;23.20;69.20;;;;;;5032713;28;20025;-76
2021/06/14 07:57:07;;;;;;;9.35;3.30;;;23.30;70.40;;;;;;5014870;28;20025;-76
2021/06/14 07:59:33;;;;;;;9.00;2.47;;;23.40;66.90;;;;;;5032573;28;20028;-76
2021/06/14 08:02:00;;;;;;;7.90;2.50;;;23.60;67.30;;;;;;5032870;28;20021;-76
2021/06/14 08:04:26;;;;;;;7.15;2.60;;;23.70;65.50;;;;;;5014801;28;20028;-75
2021/06/14 08:06:51;;;;;;;6.70;2.65;;;23.80;65.60;;;;;;5032798;28;20108;-76
2021/06/14 08:09:26;;;;;;;14.07;3.38;;;23.80;63.20;;;;;;5032601;28;20382;-76
2021/06/14 08:11:54;;;;;;;10.38;2.67;;;23.80;62.60;;;;;;5018453;28;20017;-76
2021/06/14 08:14:19;;;;;;;7.20;2.90;;;23.80;62.60;;;;;;5036065;28;20018;-76
2021/06/14 08:16:45;;;;;;;12.23;2.63;;;23.90;61.70;;;;;;5036076;28;20060;-76
2021/06/14 08:19:15;;;;;;;6.78;2.83;;;24.00;61.90;;;;;;5036089;28;20029;-76
2021/06/14 08:25:03;;;;;;;8.43;3.22;;;24.30;59.60;;;;;;5036420;28;20457;-76
2021/06/14 08:26:53;;;;;;;8.13;3.15;;;24.40;59.30;;;;;;5035604;28;20544;-76
2021/06/14 08:29:19;;;;;;;7.63;1.83;;;24.50;57.40;;;;;;5035781;28;20013;-76
2021/06/14 08:31:45;;;;;;;8.93;1.88;;;24.50;56.30;;;;;;5035811;28;20490;-76
2021/06/14 08:34:11;;;;;;;7.82;1.80;;;24.60;57.10;;;;;;5017937;28;20021;-76
2021/06/14 08:36:38;;;;;;;6.20;1.17;;;24.70;56.50;;;;;;5017682;28;20033;-76
2021/06/14 08:39:06;;;;;;;9.00;2.47;;;24.70;57.50;;;;;;5035536;28;20029;-76
2021/06/14 08:41:32;;;;;;;6.40;1.10;;;24.80;54.70;;;;;;5035439;28;20075;-76
2021/06/14 08:43:59;;;;;;;8.93;2.00;;;24.80;55.00;;;;;;5035490;28;20033;-76
2021/06/14 08:46:26;;;;;;;7.20;1.35;;;24.90;53.80;;;;;;5035331;28;20017;-76
2021/06/14 08:48:52;;;;;;;5.25;1.52;;;24.70;54.20;;;;;;5017585;28;20118;-76
2021/06/14 08:51:19;;;;;;;4.03;0.93;;;24.70;53.70;;;;;;5035379;28;20383;-76
2021/06/14 08:53:45;;;;;;;10.40;1.58;;;24.80;54.30;;;;;;5035809;28;20021;-76
2021/06/14 08:56:10;;;;;;;6.05;0.75;;;24.80;54.00;;;;;;5017368;28;20036;-76
2021/06/14 08:58:36;;;;;;;5.95;1.52;;;24.90;55.30;;;;;;5017510;28;20029;-76
2021/06/14 09:01:03;;;;;;;4.63;1.20;;;25.00;54.80;;;;;;5017424;28;20386;-76
2021/06/14 09:03:29;;;;;;;3.50;0.73;;;25.10;55.20;;;;;;5035318;28;20041;-76
2021/06/14 09:05:56;;;;;;;5.25;1.23;;;25.20;54.50;;;;;;5035286;28;20055;-76
2021/06/14 09:08:24;;;;;;;4.38;0.82;;;25.30;52.80;;;;;;5035050;28;20029;-75
2021/06/14 09:10:52;;;;;;;3.25;1.35;;;25.30;52.30;;;;;;5035247;28;20032;-76
2021/06/14 09:13:21;;;;;;;5.72;1.23;;;25.40;51.90;;;;;;5034937;28;20037;-76
2021/06/14 09:15:53;;;;;;;4.00;1.30;;;25.40;51.10;;;;;;5017035;28;20014;-76
2021/06/14 09:18:26;;;;;;;5.80;1.15;;;25.50;51.80;;;;;;5035431;28;20041;-76
2021/06/14 09:21:14;;;;;;;5.38;1.27;;;25.70;51.90;;;;;;5034434;28;20104;-76
2021/06/14 09:23:53;;;;;;;5.07;0.73;;;25.80;51.20;;;;;;5017260;28;20024;-76
2021/06/14 09:26:34;;;;;;;3.25;0.50;;;25.80;50.50;;;;;;5016804;28;20010;-76
2021/06/14 09:29:05;;;;;;;2.35;0.50;;;25.90;52.70;;;;;;5016920;28;20028;-76
2021/06/14 09:31:49;;;;;;;3.22;0.95;;;26.10;51.60;;;;;;5034643;28;20031;-76
2021/06/14 09:34:15;;;;;;;3.20;1.45;;;26.30;48.70;;;;;;5034518;28;20533;-76
2021/06/14 09:36:46;;;;;;;3.58;0.57;;;26.40;48.00;;;;;;5034177;28;20044;-76
2021/06/14 09:39:18;;;;;;;3.13;0.57;;;26.40;47.70;;;;;;5034442;28;20147;-76
2021/06/14 09:41:51;;;;;;;2.83;0.73;;;26.30;47.10;;;;;;5034473;28;20026;-76
2021/06/14 09:44:31;;;;;;;8.10;0.80;;;26.40;48.10;;;;;;5034491;28;20429;-76
2021/06/14 09:47:00;;;;;;;4.75;1.20;;;26.60;46.90;;;;;;5016463;28;20059;-76
2021/06/14 09:49:26;;;;;;;2.25;0.30;;;26.50;46.70;;;;;;5034218;28;20017;-76
2021/06/14 09:51:52;;;;;;;5.30;0.93;;;26.60;47.10;;;;;;5016457;28;20059;-76
2021/06/14 09:54:31;;;;;;;5.72;0.68;;;26.70;48.10;;;;;;5034158;28;20025;-76
2021/06/14 09:56:59;;;;;;;3.60;0.63;;;26.80;50.90;;;;;;5034121;28;20497;-76
2021/06/14 09:59:29;;;;;;;4.75;0.55;;;27.00;48.80;;;;;;5016447;28;20108;-76
2021/06/14 10:02:18;;;;;;;2.88;0.60;;;27.00;48.20;;;;;;5016343;28;20033;-76
2021/06/14 10:04:54;;;;;;;6.85;1.13;;;27.20;48.80;;;;;;5034576;28;20022;-76
2021/06/14 10:07:21;;;;;;;2.70;0.40;;;27.30;48.10;;;;;;5033866;28;20431;-76
2021/06/14 10:09:52;;;;;;;2.72;0.50;;;27.20;47.20;;;;;;5033949;28;20014;-76
2021/06/14 10:12:25;;;;;;;3.83;0.68;;;27.30;46.50;;;;;;5033854;28;20017;-77
2021/06/14 10:14:59;;;;;;;3.17;0.73;;;27.30;45.50;;;;;;5034304;28;20036;-76
2021/06/14 10:17:39;;;;;;;2.88;0.20;;;27.50;47.60;;;;;;5033628;28;20147;-76
2021/06/14 10:20:31;;;;;;;4.65;0.43;;;27.50;44.20;;;;;;5034238;28;20113;-76
2021/06/14 10:22:59;;;;;;;4.50;0.85;;;27.50;45.90;;;;;;5031703;28;20120;-76
2021/06/14 10:25:26;;;;;;;1.92;0.17;;;27.20;43.80;;;;;;5015877;28;20052;-77
2021/06/14 10:27:53;;;;;;;5.75;1.00;;;27.30;44.20;;;;;;5033625;28;20026;-76
2021/06/14 10:30:20;;;;;;;3.13;0.40;;;27.20;44.10;;;;;;5033511;28;20018;-77
2021/06/14 10:32:47;;;;;;;2.85;0.85;;;27.30;44.80;;;;;;5015198;28;20167;-76
2021/06/14 10:35:14;;;;;;;5.38;0.38;;;27.40;42.50;;;;;;5015687;28;20493;-76
2021/06/14 10:37:46;;;;;;;4.10;0.50;;;27.70;43.20;;;;;;5033296;28;20050;-77
2021/06/14 10:40:15;;;;;;;1.75;0.63;;;27.90;43.30;;;;;;5015638;28;20099;-76
2021/06/14 10:42:41;;;;;;;3.38;0.40;;;28.20;41.90;;;;;;5033399;28;20506;-76
2021/06/14 10:45:11;;;;;;;5.20;0.30;;;28.40;42.40;;;;;;5033505;28;20029;-77
2021/06/14 10:47:38;;;;;;;1.90;0.17;;;28.80;41.20;;;;;;5015790;28;20021;-76
2021/06/14 10:50:05;;;;;;;1.67;0.40;;;29.00;41.40;;;;;;5015615;28;20022;-76
2021/06/14 10:52:42;;;;;;;4.88;0.52;;;28.70;40.90;;;;;;5015428;28;20112;-76
2021/06/14 10:55:10;;;;;;;2.60;0.32;;;28.50;40.30;;;;;;5033698;28;20352;-76
2021/06/14 10:57:36;;;;;;;3.10;0.40;;;28.60;40.50;;;;;;5033131;28;20025;-76
2021/06/14 11:00:17;;;;;;;1.65;0.30;;;28.50;40.40;;;;;;5033056;28;20057;-76
2021/06/14 11:02:57;;;;;;;3.22;0.45;;;28.70;39.40;;;;;;5015346;28;20030;-76
2021/06/14 11:05:30;;;;;;;0.65;0.13;;;29.00;40.90;;;;;;5033308;28;20052;-76
2021/06/14 11:07:55;;;;;;;1.35;0.70;;;29.10;39.10;;;;;;5033302;28;20471;-76
2021/06/14 11:10:28;;;;;;;2.35;0.22;;;29.20;39.60;;;;;;5033087;28;20052;-76
2021/06/14 11:13:12;;;;;;;3.67;0.20;;;28.80;39.70;;;;;;5015380;28;20021;-76
2021/06/14 11:15:41;;;;;;;4.10;0.45;;;28.90;40.40;;;;;;5033173;28;20022;-76
2021/06/14 11:18:06;;;;;;;3.92;0.32;;;29.00;39.20;;;;;;5015159;28;20025;-76
2021/06/14 11:20:37;;;;;;;3.53;0.30;;;29.20;39.70;;;;;;5033047;28;20072;-76
2021/06/14 11:23:17;;;;;;;3.40;0.30;;;29.40;39.90;;;;;;5033257;28;20030;-76
2021/06/14 11:25:43;;;;;;;1.60;0.30;;;29.70;38.10;;;;;;5032948;28;20033;-76
2021/06/14 11:28:10;;;;;;;4.47;0.75;;;29.90;37.90;;;;;;5032850;28;20112;-76
2021/06/14 11:30:47;;;;;;;0.80;0.20;;;30.00;36.30;;;;;;5033210;28;20022;-76
2021/06/14 11:33:30;;;;;;;1.17;0.10;;;30.10;38.20;;;;;;5032988;28;20100;-76
2021/06/14 11:35:57;;;;;;;2.65;0.20;;;30.20;36.10;;;;;;5033148;28;20034;-77
2021/06/14 11:38:24;;;;;;;4.32;0.40;;;30.40;37.00;;;;;;5032772;28;20386;-77
2021/06/14 11:40:53;;;;;;;6.32;0.70;;;30.80;37.40;;;;;;5033002;28;20037;-76
2021/06/14 11:43:23;;;;;;;2.22;0.50;;;30.70;36.10;;;;;;5032745;28;20029;-76
2021/06/14 11:45:51;;;;;;;2.42;0.15;;;30.70;36.60;;;;;;5037010;28;20462;-76
2021/06/14 11:48:18;;;;;;;;;;;30.90;38.80;;;;;;5037016;28;20010;-77
2021/06/14 11:50:43;;;;;;;6.93;0.70;;;31.20;37.40;;;;;;5036446;28;19905;-76
2021/06/14 11:53:09;;;;;;;3.45;0.55;;;31.20;36.30;;;;;;5036694;28;20022;-76
2021/06/14 11:55:44;;;;;;;1.92;0.20;;;31.40;37.60;;;;;;5036631;28;20379;-76
2021/06/14 11:58:12;;;;;;;2.70;0.50;;;31.40;37.00;;;;;;5036466;28;20071;-76
2021/06/14 12:00:44;;;;;;;3.35;0.35;;;31.50;36.50;;;;;;5018624;28;20035;-76
2021/06/14 12:03:24;;;;;;;3.00;0.40;;;31.20;37.00;;;;;;5036563;28;20030;-76
2021/06/14 12:05:51;;;;;;;4.53;0.85;;;31.60;37.40;;;;;;5018448;28;20132;-76
2021/06/14 12:08:19;;;;;;;3.10;0.80;;;31.80;37.60;;;;;;5018342;28;20022;-76
2021/06/14 12:10:45;;;;;;;;;;;31.80;37.40;;;;;;5037052;28;20772;-77
2021/06/14 12:13:16;;;;;;;2.83;0.43;;;32.20;36.90;;;;;;5018832;28;19916;-76
2021/06/14 12:15:42;;;;;;;3.38;0.22;;;32.50;37.10;;;;;;5036138;28;20029;-76
2021/06/14 12:18:11;;;;;;;2.17;0.30;;;32.20;35.30;;;;;;5035972;28;20522;-76
2021/06/14 12:20:38;;;;;;;5.10;0.77;;;32.40;36.90;;;;;;5036261;28;20430;-76
2021/06/14 12:23:05;;;;;;;2.50;0.22;;;32.50;37.70;;;;;;5018222;28;20029;-76
2021/06/14 12:25:32;;;;;;;2.08;0.63;;;32.60;37.10;;;;;;5035921;28;20057;-76
2021/06/14 12:28:05;;;;;;;2.83;0.55;;;32.50;35.90;;;;;;5017981;28;20390;-76
2021/06/14 12:30:31;;;;;;;3.72;0.80;;;32.20;36.90;;;;;;5018042;28;20021;-76
2021/06/14 12:32:59;;;;;;;4.10;0.50;;;32.50;36.80;;;;;;5035820;28;20029;-76
2021/06/14 12:35:26;;;;;;;4.88;0.73;;;32.60;36.60;;;;;;5187333;22;20028;-77
2021/06/14 12:37:55;;;;;;;6.95;1.17;;;32.80;39.60;;;;;;5061219;28;20020;-77
2021/06/14 12:40:26;;;;;;;6.03;1.42;;;32.80;37.30;;;;;;5078452;28;20043;-79
2021/06/14 12:43:01;;;;;;;2.70;0.50;;;32.80;35.70;;;;;;5060351;28;20016;-79
2021/06/14 12:45:28;;;;;;;9.13;1.02;;;33.10;38.40;;;;;;5078602;28;20028;-78
2021/06/14 12:47:56;;;;;;;5.03;0.80;;;33.30;34.80;;;;;;5060305;28;20337;-78
2021/06/14 12:50:25;;;;;;;2.38;0.80;;;33.20;35.30;;;;;;5078372;28;20040;-78
2021/06/14 12:52:52;;;;;;;2.58;0.50;;;33.30;38.20;;;;;;5075723;28;20056;-76